sensor_id;sensor_type;location;lat;lon;timestamp;pressure;altitude;pressure_sealevel;temperature;humidity
63691;BME280;49837;57.280;27.070;2023-01-27T00:00:54;100483.78;;;-1.06;100.0
63691;BME280;49837;57.280;27.070;2023-01-27T00:01:54;100479.52;;;-1.06;100.0
63691;BME280;49837;57.280;27.070;2023-01-27T00:02:55;100480.3;;;-1.03;100.0
63691;BME280;49837;57.280;27.070;2023-01-27T00:03:55;100478.19;;;-1.0;100.0
63691;BME280;49837;57.280;27.070;2023-01-27T00:04:55;100482.63;;;-0.99;100.0
63691;BME280;49837;57.280;27.070;2023-01-27T00:05:56;100480.49;;;-0.95;100.0
63691;BME280;49837;57.280;27.070;2023-01-27T00:06:56;100478.44;;;-0.95;100.0
63691;BME280;49837;57.280;27.070;2023-01-27T00:07:56;100480.81;;;-0.95;100.0
63691;BME280;49837;57.280;27.070;2023-01-27T00:08:57;100480.23;;;-0.94;100.0
63691;BME280;49837;57.280;27.070;2023-01-27T00:09:57;100481.83;;;-0.9;100.0
63691;BME280;49837;57.280;27.070;2023-01-27T00:10:58;100482.48;;;-0.89;100.0
63691;BME280;49837;57.280;27.070;2023-01-27T00:11:58;100481.5;;;-0.89;100.0
63691;BME280;49837;57.280;27.070;2023-01-27T00:12:58;100482.41;;;-0.86;100.0
63691;BME280;49837;57.280;27.070;2023-01-27T00:13:58;100481.62;;;-0.85;100.0
63691;BME280;49837;57.280;27.070;2023-01-27T00:14:59;100487.97;;;-0.82;100.0
63691;BME280;49837;57.280;27.070;2023-01-27T00:15:59;100484.03;;;-0.87;100.0
63691;BME280;49837;57.280;27.070;2023-01-27T00:16:59;100486.53;;;-0.85;100.0
63691;BME280;49837;57.280;27.070;2023-01-27T00:18:00;100487.68;;;-0.85;100.0
63691;BME280;49837;57.280;27.070;2023-01-27T00:19:00;100485.86;;;-0.81;100.0
63691;BME280;49837;57.280;27.070;2023-01-27T00:20:01;100486.38;;;-0.8;100.0
63691;BME280;49837;57.280;27.070;2023-01-27T00:21:01;100484.0;;;-0.8;100.0
63691;BME280;49837;57.280;27.070;2023-01-27T00:22:01;100486.19;;;-0.81;100.0
63691;BME280;49837;57.280;27.070;2023-01-27T00:23:01;100484.38;;;-0.78;100.0
63691;BME280;49837;57.280;27.070;2023-01-27T00:24:02;100486.8;;;-0.76;100.0
63691;BME280;49837;57.280;27.070;2023-01-27T00:25:02;100488.68;;;-0.76;100.0
63691;BME280;49837;57.280;27.070;2023-01-27T00:26:04;100485.65;;;-0.76;100.0
63691;BME280;49837;57.280;27.070;2023-01-27T00:27:04;100483.98;;;-0.77;100.0
63691;BME280;49837;57.280;27.070;2023-01-27T00:28:03;100485.09;;;-0.79;100.0
63691;BME280;49837;57.280;27.070;2023-01-27T00:29:03;100488.44;;;-0.76;100.0
63691;BME280;49837;57.280;27.070;2023-01-27T00:30:05;100485.26;;;-0.74;100.0
63691;BME280;49837;57.280;27.070;2023-01-27T00:31:05;100483.77;;;-0.71;100.0
63691;BME280;49837;57.280;27.070;2023-01-27T00:32:04;100486.25;;;-0.7;100.0
63691;BME280;49837;57.280;27.070;2023-01-27T00:33:05;100486.12;;;-0.72;100.0
63691;BME280;49837;57.280;27.070;2023-01-27T00:34:05;100487.56;;;-0.71;100.0
63691;BME280;49837;57.280;27.070;2023-01-27T00:35:06;100490.88;;;-0.73;100.0
63691;BME280;49837;57.280;27.070;2023-01-27T00:36:07;100489.7;;;-0.71;100.0
63691;BME280;49837;57.280;27.070;2023-01-27T00:37:06;100490.19;;;-0.73;100.0
63691;BME280;49837;57.280;27.070;2023-01-27T00:38:06;100489.81;;;-0.73;100.0
63691;BME280;49837;57.280;27.070;2023-01-27T00:39:08;100489.32;;;-0.73;100.0
63691;BME280;49837;57.280;27.070;2023-01-27T00:40:09;100492.44;;;-0.73;100.0
63691;BME280;49837;57.280;27.070;2023-01-27T00:41:08;100487.16;;;-0.73;100.0
63691;BME280;49837;57.280;27.070;2023-01-27T00:42:08;100488.19;;;-0.71;100.0
63691;BME280;49837;57.280;27.070;2023-01-27T00:43:08;100490.84;;;-0.67;100.0
63691;BME280;49837;57.280;27.070;2023-01-27T00:44:09;100487.92;;;-0.65;100.0
63691;BME280;49837;57.280;27.070;2023-01-27T00:45:10;100490.45;;;-0.65;100.0
63691;BME280;49837;57.280;27.070;2023-01-27T00:46:09;100488.72;;;-0.62;100.0
63691;BME280;49837;57.280;27.070;2023-01-27T00:47:10;100488.31;;;-0.62;100.0
63691;BME280;49837;57.280;27.070;2023-01-27T00:48:10;100495.11;;;-0.67;100.0
63691;BME280;49837;57.280;27.070;2023-01-27T00:49:11;100490.12;;;-0.65;100.0
63691;BME280;49837;57.280;27.070;2023-01-27T00:50:11;100491.94;;;-0.65;100.0
63691;BME280;49837;57.280;27.070;2023-01-27T00:51:11;100489.13;;;-0.62;100.0
63691;BME280;49837;57.280;27.070;2023-01-27T00:52:11;100493.22;;;-0.62;100.0
63691;BME280;49837;57.280;27.070;2023-01-27T00:53:12;100501.41;;;-0.62;100.0
63691;BME280;49837;57.280;27.070;2023-01-27T00:54:12;100494.26;;;-0.56;100.0
63691;BME280;49837;57.280;27.070;2023-01-27T00:55:13;100497.12;;;-0.56;100.0
63691;BME280;49837;57.280;27.070;2023-01-27T00:56:13;100500.65;;;-0.56;100.0
63691;BME280;49837;57.280;27.070;2023-01-27T00:57:13;100499.34;;;-0.55;100.0
63691;BME280;49837;57.280;27.070;2023-01-27T00:58:14;100496.5;;;-0.57;100.0
63691;BME280;49837;57.280;27.070;2023-01-27T00:59:14;100502.36;;;-0.6;100.0
63691;BME280;49837;57.280;27.070;2023-01-27T01:00:15;100505.8;;;-0.6;100.0
63691;BME280;49837;57.280;27.070;2023-01-27T01:01:15;100503.94;;;-0.59;100.0
63691;BME280;49837;57.280;27.070;2023-01-27T01:02:15;100497.58;;;-0.58;100.0
63691;BME280;49837;57.280;27.070;2023-01-27T01:03:15;100502.2;;;-0.6;100.0
63691;BME280;49837;57.280;27.070;2023-01-27T01:04:16;100499.58;;;-0.6;100.0
63691;BME280;49837;57.280;27.070;2023-01-27T01:05:16;100499.58;;;-0.6;100.0
63691;BME280;49837;57.280;27.070;2023-01-27T01:06:18;100500.38;;;-0.61;100.0
63691;BME280;49837;57.280;27.070;2023-01-27T01:07:17;100505.3;;;-0.61;100.0
63691;BME280;49837;57.280;27.070;2023-01-27T01:08:17;100499.27;;;-0.59;100.0
63691;BME280;49837;57.280;27.070;2023-01-27T01:09:17;100500.34;;;-0.59;100.0
63691;BME280;49837;57.280;27.070;2023-01-27T01:10:18;100505.03;;;-0.58;100.0
63691;BME280;49837;57.280;27.070;2023-01-27T01:11:19;100502.35;;;-0.57;100.0
63691;BME280;49837;57.280;27.070;2023-01-27T01:12:18;100503.78;;;-0.55;100.0
63691;BME280;49837;57.280;27.070;2023-01-27T01:13:19;100507.66;;;-0.58;100.0
63691;BME280;49837;57.280;27.070;2023-01-27T01:14:19;100505.79;;;-0.57;100.0
63691;BME280;49837;57.280;27.070;2023-01-27T01:15:19;100506.41;;;-0.55;100.0
63691;BME280;49837;57.280;27.070;2023-01-27T01:16:21;100506.66;;;-0.55;100.0
63691;BME280;49837;57.280;27.070;2023-01-27T01:17:20;100504.32;;;-0.53;100.0
63691;BME280;49837;57.280;27.070;2023-01-27T01:18:20;100501.41;;;-0.55;100.0
63691;BME280;49837;57.280;27.070;2023-01-27T01:19:21;100501.39;;;-0.56;100.0
63691;BME280;49837;57.280;27.070;2023-01-27T01:20:21;100505.44;;;-0.58;100.0
63691;BME280;49837;57.280;27.070;2023-01-27T01:21:21;100506.66;;;-0.55;100.0
63691;BME280;49837;57.280;27.070;2023-01-27T01:22:22;100507.86;;;-0.56;100.0
63691;BME280;49837;57.280;27.070;2023-01-27T01:23:22;100512.94;;;-0.55;100.0
63691;BME280;49837;57.280;27.070;2023-01-27T01:24:23;100511.88;;;-0.56;100.0
63691;BME280;49837;57.280;27.070;2023-01-27T01:25:23;100508.53;;;-0.54;100.0
63691;BME280;49837;57.280;27.070;2023-01-27T01:26:23;100510.94;;;-0.49;100.0
63691;BME280;49837;57.280;27.070;2023-01-27T01:27:23;100511.39;;;-0.47;100.0
63691;BME280;49837;57.280;27.070;2023-01-27T01:28:24;100510.75;;;-0.5;100.0
63691;BME280;49837;57.280;27.070;2023-01-27T01:29:24;100512.39;;;-0.51;100.0
63691;BME280;49837;57.280;27.070;2023-01-27T01:30:24;100519.55;;;-0.52;100.0
63691;BME280;49837;57.280;27.070;2023-01-27T01:31:25;100521.36;;;-0.52;100.0
63691;BME280;49837;57.280;27.070;2023-01-27T01:32:25;100518.64;;;-0.54;100.0
63691;BME280;49837;57.280;27.070;2023-01-27T01:33:25;100523.69;;;-0.54;100.0
63691;BME280;49837;57.280;27.070;2023-01-27T01:34:26;100521.89;;;-0.55;100.0
63691;BME280;49837;57.280;27.070;2023-01-27T01:35:26;100522.84;;;-0.53;100.0
63691;BME280;49837;57.280;27.070;2023-01-27T01:36:26;100529.61;;;-0.54;100.0
63691;BME280;49837;57.280;27.070;2023-01-27T01:37:27;100528.5;;;-0.55;100.0
63691;BME280;49837;57.280;27.070;2023-01-27T01:38:27;100531.89;;;-0.55;100.0
63691;BME280;49837;57.280;27.070;2023-01-27T01:39:28;100531.61;;;-0.55;100.0
63691;BME280;49837;57.280;27.070;2023-01-27T01:40:28;100531.89;;;-0.55;100.0
63691;BME280;49837;57.280;27.070;2023-01-27T01:41:28;100533.22;;;-0.54;100.0
63691;BME280;49837;57.280;27.070;2023-01-27T01:43:31;100536.48;;;-0.55;100.0
63691;BME280;49837;57.280;27.070;2023-01-27T01:44:32;100534.77;;;-0.58;100.0
63691;BME280;49837;57.280;27.070;2023-01-27T01:46:34;100536.25;;;-0.58;100.0
63691;BME280;49837;57.280;27.070;2023-01-27T01:47:34;100536.35;;;-0.57;100.0
63691;BME280;49837;57.280;27.070;2023-01-27T01:48:38;100540.56;;;-0.58;100.0
63691;BME280;49837;57.280;27.070;2023-01-27T01:49:39;100536.47;;;-0.59;100.0
63691;BME280;49837;57.280;27.070;2023-01-27T01:50:39;100540.02;;;-0.61;100.0
63691;BME280;49837;57.280;27.070;2023-01-27T01:51:42;100542.25;;;-0.64;100.0
63691;BME280;49837;57.280;27.070;2023-01-27T01:52:40;100549.77;;;-0.65;100.0
63691;BME280;49837;57.280;27.070;2023-01-27T01:55:46;100552.16;;;-0.68;100.0
63691;BME280;49837;57.280;27.070;2023-01-27T01:57:50;100553.09;;;-0.71;100.0
63691;BME280;49837;57.280;27.070;2023-01-27T01:58:50;100552.02;;;-0.75;100.0
63691;BME280;49837;57.280;27.070;2023-01-27T01:59:53;100554.28;;;-0.76;100.0
63691;BME280;49837;57.280;27.070;2023-01-27T02:00:54;100561.12;;;-0.81;100.0
63691;BME280;49837;57.280;27.070;2023-01-27T02:01:55;100557.6;;;-0.81;100.0
63691;BME280;49837;57.280;27.070;2023-01-27T02:02:54;100560.31;;;-0.84;100.0
63691;BME280;49837;57.280;27.070;2023-01-27T02:03:58;100564.42;;;-0.88;100.0
63691;BME280;49837;57.280;27.070;2023-01-27T02:05:01;100563.14;;;-0.87;100.0
63691;BME280;49837;57.280;27.070;2023-01-27T02:06:01;100568.06;;;-0.9;100.0
63691;BME280;49837;57.280;27.070;2023-01-27T02:09:06;100571.55;;;-0.91;100.0
63691;BME280;49837;57.280;27.070;2023-01-27T02:10:07;100575.7;;;-0.92;100.0
63691;BME280;49837;57.280;27.070;2023-01-27T02:11:08;100574.42;;;-0.91;100.0
63691;BME280;49837;57.280;27.070;2023-01-27T02:12:07;100576.38;;;-0.88;100.0
63691;BME280;49837;57.280;27.070;2023-01-27T02:13:08;100575.29;;;-0.88;100.0
63691;BME280;49837;57.280;27.070;2023-01-27T02:14:10;100574.33;;;-0.87;99.52
63691;BME280;49837;57.280;27.070;2023-01-27T02:15:09;100572.88;;;-0.86;99.03
63691;BME280;49837;57.280;27.070;2023-01-27T02:16:10;100576.28;;;-0.81;97.88
63691;BME280;49837;57.280;27.070;2023-01-27T02:17:11;100575.18;;;-0.79;97.29
63691;BME280;49837;57.280;27.070;2023-01-27T02:18:10;100578.41;;;-0.81;97.32
63691;BME280;49837;57.280;27.070;2023-01-27T02:19:20;100576.66;;;-0.82;97.54
63691;BME280;49837;57.280;27.070;2023-01-27T02:20:35;100573.62;;;-0.9;98.07
63691;BME280;49837;57.280;27.070;2023-01-27T02:21:16;100575.78;;;-0.89;97.71
63691;BME280;49837;57.280;27.070;2023-01-27T02:22:26;100567.27;;;-0.92;98.0
63691;BME280;49837;57.280;27.070;2023-01-27T02:24:29;100569.96;;;-0.88;96.53
63691;BME280;49837;57.280;27.070;2023-01-27T02:26:36;100570.28;;;-0.96;96.05
63691;BME280;49837;57.280;27.070;2023-01-27T02:27:30;100572.43;;;-1.03;96.45
63691;BME280;49837;57.280;27.070;2023-01-27T02:28:31;100572.25;;;-1.09;96.76
63691;BME280;49837;57.280;27.070;2023-01-27T02:29:31;100572.02;;;-1.16;97.16
63691;BME280;49837;57.280;27.070;2023-01-27T02:30:32;100573.55;;;-1.2;97.49
63691;BME280;49837;57.280;27.070;2023-01-27T02:31:32;100572.11;;;-1.2;97.63
63691;BME280;49837;57.280;27.070;2023-01-27T02:32:32;100572.5;;;-1.29;98.03
63691;BME280;49837;57.280;27.070;2023-01-27T02:33:32;100575.16;;;-1.32;98.36
63691;BME280;49837;57.280;27.070;2023-01-27T02:34:34;100572.02;;;-1.33;98.62
63691;BME280;49837;57.280;27.070;2023-01-27T02:35:38;100571.42;;;-1.37;98.74
63691;BME280;49837;57.280;27.070;2023-01-27T02:36:42;100572.02;;;-1.46;99.05
63691;BME280;49837;57.280;27.070;2023-01-27T02:37:42;100572.89;;;-1.47;99.33
63691;BME280;49837;57.280;27.070;2023-01-27T02:38:48;100577.42;;;-1.52;99.52
63691;BME280;49837;57.280;27.070;2023-01-27T02:39:49;100577.64;;;-1.54;99.72
63691;BME280;49837;57.280;27.070;2023-01-27T02:40:50;100580.12;;;-1.58;99.86
63691;BME280;49837;57.280;27.070;2023-01-27T02:41:54;100582.84;;;-1.63;99.99
63691;BME280;49837;57.280;27.070;2023-01-27T02:42:56;100579.38;;;-1.65;100.0
63691;BME280;49837;57.280;27.070;2023-01-27T02:43:54;100580.69;;;-1.68;100.0
63691;BME280;49837;57.280;27.070;2023-01-27T02:44:55;100581.09;;;-1.68;100.0
63691;BME280;49837;57.280;27.070;2023-01-27T02:45:55;100583.47;;;-1.68;100.0
63691;BME280;49837;57.280;27.070;2023-01-27T02:46:55;100584.07;;;-1.7;100.0
63691;BME280;49837;57.280;27.070;2023-01-27T02:47:56;100586.36;;;-1.73;100.0
63691;BME280;49837;57.280;27.070;2023-01-27T02:48:56;100588.59;;;-1.76;100.0
63691;BME280;49837;57.280;27.070;2023-01-27T02:49:57;100590.03;;;-1.73;100.0
63691;BME280;49837;57.280;27.070;2023-01-27T02:50:57;100586.95;;;-1.76;100.0
63691;BME280;49837;57.280;27.070;2023-01-27T02:51:57;100584.17;;;-1.76;100.0
63691;BME280;49837;57.280;27.070;2023-01-27T02:52:57;100589.19;;;-1.72;100.0
63691;BME280;49837;57.280;27.070;2023-01-27T02:53:58;100584.23;;;-1.7;100.0
63691;BME280;49837;57.280;27.070;2023-01-27T02:54:58;100584.72;;;-1.69;100.0
63691;BME280;49837;57.280;27.070;2023-01-27T02:55:58;100590.91;;;-1.71;100.0
63691;BME280;49837;57.280;27.070;2023-01-27T02:56:59;100587.8;;;-1.71;100.0
63691;BME280;49837;57.280;27.070;2023-01-27T02:57:59;100587.53;;;-1.69;100.0
63691;BME280;49837;57.280;27.070;2023-01-27T02:58:59;100586.94;;;-1.67;100.0
63691;BME280;49837;57.280;27.070;2023-01-27T03:00:00;100584.02;;;-1.66;100.0
63691;BME280;49837;57.280;27.070;2023-01-27T03:01:00;100591.3;;;-1.66;100.0
63691;BME280;49837;57.280;27.070;2023-01-27T03:02:00;100593.42;;;-1.62;100.0
63691;BME280;49837;57.280;27.070;2023-01-27T03:03:01;100592.28;;;-1.59;100.0
63691;BME280;49837;57.280;27.070;2023-01-27T03:04:01;100590.02;;;-1.52;100.0
63691;BME280;49837;57.280;27.070;2023-01-27T03:05:01;100588.11;;;-1.53;100.0
63691;BME280;49837;57.280;27.070;2023-01-27T03:06:02;100589.72;;;-1.55;100.0
63691;BME280;49837;57.280;27.070;2023-01-27T03:07:02;100586.53;;;-1.54;100.0
63691;BME280;49837;57.280;27.070;2023-01-27T03:08:02;100584.38;;;-1.55;100.0
63691;BME280;49837;57.280;27.070;2023-01-27T03:09:04;100586.77;;;-1.58;100.0
63691;BME280;49837;57.280;27.070;2023-01-27T03:10:03;100584.48;;;-1.55;100.0
63691;BME280;49837;57.280;27.070;2023-01-27T03:11:04;100586.28;;;-1.57;100.0
63691;BME280;49837;57.280;27.070;2023-01-27T03:12:04;100588.0;;;-1.6;100.0
63691;BME280;49837;57.280;27.070;2023-01-27T03:13:04;100588.98;;;-1.6;100.0
63691;BME280;49837;57.280;27.070;2023-01-27T03:14:06;100592.23;;;-1.61;100.0
63691;BME280;49837;57.280;27.070;2023-01-27T03:15:05;100593.62;;;-1.62;100.0
63691;BME280;49837;57.280;27.070;2023-01-27T03:16:06;100594.41;;;-1.59;100.0
63691;BME280;49837;57.280;27.070;2023-01-27T03:17:05;100590.64;;;-1.6;100.0
63691;BME280;49837;57.280;27.070;2023-01-27T03:18:08;100590.73;;;-1.59;100.0
63691;BME280;49837;57.280;27.070;2023-01-27T03:19:06;100589.66;;;-1.59;100.0
63691;BME280;49837;57.280;27.070;2023-01-27T03:20:07;100595.31;;;-1.59;100.0
63691;BME280;49837;57.280;27.070;2023-01-27T03:21:07;100592.88;;;-1.58;100.0
63691;BME280;49837;57.280;27.070;2023-01-27T03:22:07;100593.2;;;-1.55;100.0
63691;BME280;49837;57.280;27.070;2023-01-27T03:23:08;100592.2;;;-1.54;100.0
63691;BME280;49837;57.280;27.070;2023-01-27T03:24:08;100593.56;;;-1.54;100.0
63691;BME280;49837;57.280;27.070;2023-01-27T03:25:08;100592.67;;;-1.55;100.0
63691;BME280;49837;57.280;27.070;2023-01-27T03:26:09;100588.49;;;-1.54;100.0
63691;BME280;49837;57.280;27.070;2023-01-27T03:27:09;100593.86;;;-1.55;100.0
63691;BME280;49837;57.280;27.070;2023-01-27T03:28:09;100593.92;;;-1.53;100.0
63691;BME280;49837;57.280;27.070;2023-01-27T03:29:09;100597.19;;;-1.56;100.0
63691;BME280;49837;57.280;27.070;2023-01-27T03:30:11;100599.73;;;-1.56;100.0
63691;BME280;49837;57.280;27.070;2023-01-27T03:31:11;100599.07;;;-1.53;100.0
63691;BME280;49837;57.280;27.070;2023-01-27T03:32:10;100602.64;;;-1.55;100.0
63691;BME280;49837;57.280;27.070;2023-01-27T03:33:11;100607.8;;;-1.54;100.0
63691;BME280;49837;57.280;27.070;2023-01-27T03:34:11;100603.52;;;-1.52;100.0
63691;BME280;49837;57.280;27.070;2023-01-27T03:35:13;100608.19;;;-1.52;100.0
63691;BME280;49837;57.280;27.070;2023-01-27T03:36:12;100603.25;;;-1.47;100.0
63691;BME280;49837;57.280;27.070;2023-01-27T03:37:12;100608.02;;;-1.46;100.0
63691;BME280;49837;57.280;27.070;2023-01-27T03:38:16;100605.27;;;-1.48;100.0
63691;BME280;49837;57.280;27.070;2023-01-27T03:39:14;100599.48;;;-1.47;100.0
63691;BME280;49837;57.280;27.070;2023-01-27T03:40:15;100601.64;;;-1.46;100.0
63691;BME280;49837;57.280;27.070;2023-01-27T03:41:15;100608.02;;;-1.46;100.0
63691;BME280;49837;57.280;27.070;2023-01-27T03:42:15;100603.91;;;-1.47;100.0
63691;BME280;49837;57.280;27.070;2023-01-27T03:43:15;100604.42;;;-1.46;100.0
63691;BME280;49837;57.280;27.070;2023-01-27T03:44:16;100606.39;;;-1.46;100.0
63691;BME280;49837;57.280;27.070;2023-01-27T03:45:16;100608.05;;;-1.45;100.0
63691;BME280;49837;57.280;27.070;2023-01-27T03:46:16;100613.02;;;-1.46;100.0
63691;BME280;49837;57.280;27.070;2023-01-27T03:47:17;100613.53;;;-1.48;100.0
63691;BME280;49837;57.280;27.070;2023-01-27T03:48:17;100618.3;;;-1.47;100.0
63691;BME280;49837;57.280;27.070;2023-01-27T03:49:18;100621.52;;;-1.46;100.0
63691;BME280;49837;57.280;27.070;2023-01-27T03:50:18;100623.54;;;-1.47;100.0
63691;BME280;49837;57.280;27.070;2023-01-27T03:51:23;100621.48;;;-1.5;99.93
63691;BME280;49837;57.280;27.070;2023-01-27T03:52:21;100620.84;;;-1.5;99.78
63691;BME280;49837;57.280;27.070;2023-01-27T03:53:21;100623.75;;;-1.54;99.87
63691;BME280;49837;57.280;27.070;2023-01-27T03:54:21;100626.45;;;-1.54;99.88
63691;BME280;49837;57.280;27.070;2023-01-27T03:55:22;100631.11;;;-1.54;99.89
63691;BME280;49837;57.280;27.070;2023-01-27T03:56:22;100635.75;;;-1.49;99.95
63691;BME280;49837;57.280;27.070;2023-01-27T03:57:22;100630.98;;;-1.5;99.79
63691;BME280;49837;57.280;27.070;2023-01-27T03:58:27;100633.16;;;-1.51;99.92
63691;BME280;49837;57.280;27.070;2023-01-27T03:59:25;100635.42;;;-1.52;99.97
63691;BME280;49837;57.280;27.070;2023-01-27T04:00:26;100634.11;;;-1.55;100.0
63691;BME280;49837;57.280;27.070;2023-01-27T04:01:26;100631.52;;;-1.54;99.95
63691;BME280;49837;57.280;27.070;2023-01-27T04:02:26;100631.06;;;-1.53;99.98
63691;BME280;49837;57.280;27.070;2023-01-27T04:03:29;100630.89;;;-1.57;100.0
63691;BME280;49837;57.280;27.070;2023-01-27T04:04:28;100631.39;;;-1.57;100.0
63691;BME280;49837;57.280;27.070;2023-01-27T04:05:29;100630.87;;;-1.58;99.99
63691;BME280;49837;57.280;27.070;2023-01-27T04:06:30;100635.77;;;-1.6;100.0
63691;BME280;49837;57.280;27.070;2023-01-27T04:07:28;100630.4;;;-1.59;99.92
63691;BME280;49837;57.280;27.070;2023-01-27T04:08:29;100632.45;;;-1.56;99.77
63691;BME280;49837;57.280;27.070;2023-01-27T04:09:31;100637.88;;;-1.59;99.61
63691;BME280;49837;57.280;27.070;2023-01-27T04:10:30;100636.12;;;-1.57;99.44
63691;BME280;49837;57.280;27.070;2023-01-27T04:11:30;100638.83;;;-1.53;99.18
63691;BME280;49837;57.280;27.070;2023-01-27T04:12:31;100638.42;;;-1.53;99.1
63691;BME280;49837;57.280;27.070;2023-01-27T04:13:31;100634.33;;;-1.53;98.98
63691;BME280;49837;57.280;27.070;2023-01-27T04:14:40;100637.77;;;-1.53;98.93
63691;BME280;49837;57.280;27.070;2023-01-27T04:15:33;100634.62;;;-1.58;99.04
63691;BME280;49837;57.280;27.070;2023-01-27T04:16:34;100635.86;;;-1.58;99.14
63691;BME280;49837;57.280;27.070;2023-01-27T04:17:34;100634.98;;;-1.6;99.25
63691;BME280;49837;57.280;27.070;2023-01-27T04:18:34;100638.09;;;-1.59;99.3
63691;BME280;49837;57.280;27.070;2023-01-27T04:19:35;100636.66;;;-1.64;99.32
63691;BME280;49837;57.280;27.070;2023-01-27T04:20:35;100640.06;;;-1.71;99.47
63691;BME280;49837;57.280;27.070;2023-01-27T04:21:35;100635.53;;;-1.72;99.53
63691;BME280;49837;57.280;27.070;2023-01-27T04:22:35;100639.65;;;-1.75;99.64
63691;BME280;49837;57.280;27.070;2023-01-27T04:23:36;100638.26;;;-1.74;99.72
63691;BME280;49837;57.280;27.070;2023-01-27T04:24:36;100640.58;;;-1.73;99.81
63691;BME280;49837;57.280;27.070;2023-01-27T04:25:36;100647.69;;;-1.73;99.87
63691;BME280;49837;57.280;27.070;2023-01-27T04:26:37;100649.82;;;-1.74;99.92
63691;BME280;49837;57.280;27.070;2023-01-27T04:27:37;100647.45;;;-1.73;99.92
63691;BME280;49837;57.280;27.070;2023-01-27T04:28:37;100650.01;;;-1.72;100.0
63691;BME280;49837;57.280;27.070;2023-01-27T04:29:41;100650.03;;;-1.74;100.0
63691;BME280;49837;57.280;27.070;2023-01-27T04:30:41;100652.02;;;-1.73;100.0
63691;BME280;49837;57.280;27.070;2023-01-27T04:31:41;100649.22;;;-1.74;100.0
63691;BME280;49837;57.280;27.070;2023-01-27T04:32:41;100648.72;;;-1.74;100.0
63691;BME280;49837;57.280;27.070;2023-01-27T04:33:43;100655.77;;;-1.72;100.0
63691;BME280;49837;57.280;27.070;2023-01-27T04:34:42;100653.03;;;-1.72;100.0
63691;BME280;49837;57.280;27.070;2023-01-27T04:35:43;100655.09;;;-1.69;100.0
63691;BME280;49837;57.280;27.070;2023-01-27T04:36:43;100652.98;;;-1.68;100.0
63691;BME280;49837;57.280;27.070;2023-01-27T04:37:43;100655.05;;;-1.7;100.0
63691;BME280;49837;57.280;27.070;2023-01-27T04:38:43;100651.73;;;-1.69;100.0
63691;BME280;49837;57.280;27.070;2023-01-27T04:39:44;100656.72;;;-1.69;100.0
63691;BME280;49837;57.280;27.070;2023-01-27T04:40:44;100656.5;;;-1.71;100.0
63691;BME280;49837;57.280;27.070;2023-01-27T04:41:45;100664.58;;;-1.66;100.0
63691;BME280;49837;57.280;27.070;2023-01-27T04:42:45;100665.59;;;-1.68;100.0
63691;BME280;49837;57.280;27.070;2023-01-27T04:43:45;100664.73;;;-1.69;100.0
63691;BME280;49837;57.280;27.070;2023-01-27T04:44:45;100669.97;;;-1.69;100.0
63691;BME280;49837;57.280;27.070;2023-01-27T04:45:46;100676.41;;;-1.67;100.0
63691;BME280;49837;57.280;27.070;2023-01-27T04:46:47;100677.86;;;-1.68;100.0
63691;BME280;49837;57.280;27.070;2023-01-27T04:47:46;100681.72;;;-1.7;100.0
63691;BME280;49837;57.280;27.070;2023-01-27T04:48:47;100684.91;;;-1.73;100.0
63691;BME280;49837;57.280;27.070;2023-01-27T04:49:47;100685.38;;;-1.76;100.0
63691;BME280;49837;57.280;27.070;2023-01-27T04:50:48;100683.58;;;-1.76;100.0
63691;BME280;49837;57.280;27.070;2023-01-27T04:51:49;100686.34;;;-1.77;100.0
63691;BME280;49837;57.280;27.070;2023-01-27T04:52:48;100685.11;;;-1.78;100.0
63691;BME280;49837;57.280;27.070;2023-01-27T04:53:48;100682.38;;;-1.78;100.0
63691;BME280;49837;57.280;27.070;2023-01-27T04:54:49;100684.62;;;-1.77;100.0
63691;BME280;49837;57.280;27.070;2023-01-27T04:55:49;100681.61;;;-1.83;100.0
63691;BME280;49837;57.280;27.070;2023-01-27T04:56:55;100684.62;;;-1.86;100.0
63691;BME280;49837;57.280;27.070;2023-01-27T04:57:53;100680.42;;;-1.87;100.0
63691;BME280;49837;57.280;27.070;2023-01-27T04:58:57;100683.03;;;-1.87;100.0
63691;BME280;49837;57.280;27.070;2023-01-27T04:59:55;100683.83;;;-1.88;100.0
63691;BME280;49837;57.280;27.070;2023-01-27T05:00:56;100684.57;;;-1.85;100.0
63691;BME280;49837;57.280;27.070;2023-01-27T05:01:56;100693.59;;;-1.88;100.0
63691;BME280;49837;57.280;27.070;2023-01-27T05:02:56;100697.2;;;-1.84;100.0
63691;BME280;49837;57.280;27.070;2023-01-27T05:03:57;100702.77;;;-1.89;100.0
63691;BME280;49837;57.280;27.070;2023-01-27T05:04:57;100701.3;;;-1.95;100.0
63691;BME280;49837;57.280;27.070;2023-01-27T05:05:57;100704.71;;;-1.93;100.0
63691;BME280;49837;57.280;27.070;2023-01-27T05:06:58;100702.75;;;-1.93;100.0
63691;BME280;49837;57.280;27.070;2023-01-27T05:08:08;100701.28;;;-1.84;100.0
63691;BME280;49837;57.280;27.070;2023-01-27T05:09:02;100702.2;;;-1.86;100.0
63691;BME280;49837;57.280;27.070;2023-01-27T05:10:02;100707.0;;;-1.88;100.0
63691;BME280;49837;57.280;27.070;2023-01-27T05:11:02;100704.19;;;-1.94;100.0
63691;BME280;49837;57.280;27.070;2023-01-27T05:12:03;100707.52;;;-1.91;100.0
63691;BME280;49837;57.280;27.070;2023-01-27T05:13:03;100705.98;;;-1.89;100.0
63691;BME280;49837;57.280;27.070;2023-01-27T05:14:03;100711.19;;;-1.89;100.0
63691;BME280;49837;57.280;27.070;2023-01-27T05:15:04;100709.77;;;-1.87;100.0
63691;BME280;49837;57.280;27.070;2023-01-27T05:16:18;100710.34;;;-1.87;100.0
63691;BME280;49837;57.280;27.070;2023-01-27T05:17:06;100710.55;;;-1.86;100.0
63691;BME280;49837;57.280;27.070;2023-01-27T05:18:06;100713.27;;;-1.85;100.0
63691;BME280;49837;57.280;27.070;2023-01-27T05:19:07;100718.26;;;-1.85;100.0
63691;BME280;49837;57.280;27.070;2023-01-27T05:20:08;100718.59;;;-1.81;100.0
63691;BME280;49837;57.280;27.070;2023-01-27T05:21:10;100720.79;;;-1.84;100.0
63691;BME280;49837;57.280;27.070;2023-01-27T05:22:08;100729.12;;;-1.88;100.0
63691;BME280;49837;57.280;27.070;2023-01-27T05:23:09;100722.0;;;-1.91;100.0